This is the latest recevied weather packets stored in our database for station/object K7SKM. If no packets are shown the sender has not sent any weather packets the latest 10 day(s).
| Time | Temp. | Humidity | Pressure | Rain* | Wind** | Luminosity | Snow |
|---|---|---|---|---|---|---|---|
| 1787607791 | 27.22° C | 47% | 1019.6 hPa | 0 mm | - | 350 W/m² | - |
| 1787607488 | 27.22° C | 47% | 1019.4 hPa | 0 mm | - | 395 W/m² | - |
| 1787607184 | 25.56° C | 50% | 1019.6 hPa | 0 mm | - | 244 W/m² | - |
| 1787606880 | 27.78° C | 47% | 1019.7 hPa | 0 mm | - | 155 W/m² | - |
| 1787606578 | 27.22° C | 47% | 1019.6 hPa | 0 mm | - | 373 W/m² | - |
| 1787606277 | 27.22° C | 47% | 1019.9 hPa | 0 mm | - | 404 W/m² | - |
| 1787605973 | 27.22° C | 47% | 1019.8 hPa | 0 mm | - | 401 W/m² | - |
| 1787605671 | 26.67° C | 49% | 1020 hPa | 0 mm | - | 406 W/m² | - |
| 1787605367 | 27.22° C | 48% | 1020.1 hPa | 0 mm | - | 407 W/m² | - |
| 1787605063 | 26.11° C | 49% | 1020.2 hPa | 0 mm | - | 409 W/m² | - |
| 1787604761 | 27.22° C | 47% | 1020.2 hPa | 0 mm | - | 418 W/m² | - |
| 1787604457 | 27.22° C | 47% | 1020.3 hPa | 0 mm | - | 416 W/m² | - |
| 1787604151 | 26.11° C | 48% | 1020.5 hPa | 0 mm | - | 410 W/m² | - |
| 1787603846 | 26.11° C | 49% | 1020.4 hPa | 0 mm | - | 408 W/m² | - |
| 1787603541 | 25.56° C | 50% | 1020.3 hPa | 0 mm | - | 408 W/m² | - |
| 1787603236 | 25.56° C | 50% | 1020.4 hPa | 0 mm | - | 408 W/m² | - |
| 1787602932 | 25.56° C | 51% | 1020.6 hPa | 0 mm | - | 409 W/m² | - |
| 1787602628 | 25.56° C | 51% | 1020.7 hPa | 0 mm | - | 406 W/m² | - |
| 1787602323 | 25° C | 52% | 1020.7 hPa | 0 mm | - | 409 W/m² | - |
| 1787602022 | 25.56° C | 51% | 1020.8 hPa | 0 mm | - | 407 W/m² | - |
| 1787601716 | 26.11° C | 49% | 1021 hPa | 0 mm | - | 400 W/m² | - |
| 1787601412 | 26.11° C | 50% | 1020.8 hPa | 0 mm | - | 383 W/m² | - |
| 1787601111 | 25° C | 52% | 1020.9 hPa | 0 mm | - | 372 W/m² | - |
| 1787600805 | 25° C | 52% | 1021 hPa | 0 mm | - | 406 W/m² | - |
| 1787600501 | 25° C | 52% | 1021.2 hPa | 0 mm | - | 401 W/m² | - |
* Rain latest hour (hover to see other rain measurements)
** Current wind speed in m/s (hover to see current wind gust speed)